フェニックス の空港の天気 - METARとTAF

フェニックス・スカイハーバー国際空港 ( KPHX / PHX ) - アメリカ アリゾナ州フェニックス
飛行場実況気象(Metar)
観測時間08/10 23:51 MST (08/11 06:51 UTC)
風向・風速北西 3m/s
視程10km以上
天気現象
なし
気温37.2℃
湿度14%
気圧1007.1hPa
METARKPHX 110651Z 31006KT 10SM CLR 37/05 A2981 RMK AO2 SLP071 T03720050 404390289
過去の天気等 Google飛行場航空写真 Wunderground天気予報

過去48時間のMETAR

飛行場予報(TAF)
発表時間: 8/10 22:20 MST (8/11 05:20 UTC)
予報対象時間: 10日23時 MST ~ 12日5時 MST
風向・風速西 4m/s
視程10km以上
少しの雲 雲底高度 3660m
11日4時 MST から
風向・風速東南東 3m/s
視程10km以上
全天の4割程度の雲 雲底高度 3660m
11日13時 MST から
風向・風速西 4m/s
視程10km以上
少しの雲 雲底高度 4270m
12日3時 MST から
風向・風速東南東 3m/s
視程10km以上
全天の4割程度の雲 雲底高度 4270m
KPHX 110520Z 1106/1212 27008KT P6SM FEW120
FM111100 12005KT P6SM SCT120
FM112000 26008KT P6SM FEW140
FM121000 12005KT P6SM SCT140